Brezno, Slovakia
Current Conditions -  °F | °C
As of 5:30 AM on Saturday 25 Oct 2014 (Local Time) from LZSL Reporting Station
Overcast Overcast  
Wind Chill: 43°   Ceiling: 2000
Heat Index: 43°   Visibility: 6mi
Dew Point: 37°   Wind: 3mph
Humidity: 81%   Direction: 40°NE
Pressure: 30.21"   Gusts: NA
Location:  48.81°N, 19.64°E
Report Text: LZSL 250330Z 04003KT 9999 BKN020 OVC024 06/03 Q1023
Loading
Personal Weather Stations






























Interactive Weather Map
Tropical Storm Tracking
New forecast layout! Learn more

10-Day Weather Forecast

Advertisements
Track Severe Weather on mobile